METAR Data
IDs: Format: Raw Decoded Include TAF

Data at: 0356 UTC 14 Dec 2018

METAR for:KIDI (Indiana/Stewart Arpt, PA, US)
Text:KIDI 140355Z AUTO 11006G11KT 10SM CLR 03/M01 A3031 RMK A01
Temperature: 3.0°C ( 37°F)
Dewpoint: -1.0°C ( 30°F) [RH = 75%]
Pressure (altimeter):30.31 inches Hg (1026.5 mb)
Winds:from the ESE (110 degrees) at 7 MPH (6 knots; 3.1 m/s) gusting to 13 MPH (11 knots; 5.7 m/s)
Visibility:10 or more sm (16+ km)
Ceiling:at least 12,000 feet AGL
Clouds:sky clear below 12,000 feet AGL
QC Flag:automated observation with no human augmentation
Text:KIDI 140335Z AUTO 11005KT 10SM CLR 02/M01 A3030 RMK A01
Temperature: 2.0°C ( 36°F)
Dewpoint: -1.0°C ( 30°F) [RH = 80%]
Pressure (altimeter):30.30 inches Hg (1026.2 mb)
Winds:from the ESE (110 degrees) at 6 MPH (5 knots; 2.6 m/s)
Visibility:10 or more sm (16+ km)
Ceiling:at least 12,000 feet AGL
Clouds:sky clear below 12,000 feet AGL
QC Flag:automated observation with no human augmentation
Text:KIDI 140315Z AUTO 11006G11KT 10SM CLR 02/M01 A3031 RMK A01
Temperature: 2.0°C ( 36°F)
Dewpoint: -1.0°C ( 30°F) [RH = 80%]
Pressure (altimeter):30.31 inches Hg (1026.5 mb)
Winds:from the ESE (110 degrees) at 7 MPH (6 knots; 3.1 m/s) gusting to 13 MPH (11 knots; 5.7 m/s)
Visibility:10 or more sm (16+ km)
Ceiling:at least 12,000 feet AGL
Clouds:sky clear below 12,000 feet AGL
QC Flag:automated observation with no human augmentation